Weser, Texas
Current Conditions -  °F | °C
As of 7:35 PM on Thursday 18 Dec 2014 (Local Time) from KBEA Reporting Station
Light Rain Light Rain  
Wind Chill: 64°   Ceiling: 700
Heat Index: 64°   Visibility: 5mi
Dew Point: 63°   Wind: 7mph
Humidity: 98%   Direction: 60°ENE
Pressure: 30"   Gusts: NA
Location:  28.6563°N, 97.4287°W
Report Text: KBEA 190135Z AUTO 06006KT 5SM -RA OVC007 18/17 A3000 RMK AO2 T01750172
Loading
Personal Weather Stations






























Interactive Weather Map New forecast layout! Learn more

10-Day Weather Forecast

Advertisements
Track Severe Weather on mobile